Folsom, California
Current Conditions -  °F | °C
As of 6:45 AM on Friday 31 Oct 2014 (Local Time) from KMHR Reporting Station
Broken Clouds Broken Clouds  
Wind Chill: 55°   Ceiling: 12000
Heat Index: 55°   Visibility: 10mi
Dew Point: 54°   Wind: 7mph
Humidity: 94%   Direction: 120°ESE
Pressure: 29.89"   Gusts: NA
Location:  38.68°N, 121.16°W
Report Text: KMHR 311345Z 12006KT 10SM FEW050 BKN120 13/12 A2989
Loading
Personal Weather Stations






























Interactive Weather Map
Tropical Storm Tracking
New forecast layout! Learn more

10-Day Weather Forecast

Advertisements
Track Severe Weather on mobile